Time;durP1;ratioP1;P1;durP2;ratioP2;P2;SDS_P1;SDS_P2;PMS_P1;PMS_P2;Temp;Humidity;BMP_temperature;BMP_pressure;BME280_temperature;BME280_humidity;BME280_pressure;Samples;Min_cycle;Max_cycle;Signal;HPM_P1;HPM_P2
2021/12/14 00:00:26;;;;;;;18.45;11.27;;;8.80;99.90;;;;;;5013364;28;20075;-50
2021/12/14 00:02:52;;;;;;;18.77;11.10;;;8.80;99.90;;;;;;4999644;28;20045;-51
2021/12/14 00:05:20;;;;;;;18.65;11.45;;;8.80;99.90;;;;;;4995813;28;20524;-52
2021/12/14 00:07:46;;;;;;;18.42;11.35;;;8.80;99.90;;;;;;5012615;28;20406;-52
2021/12/14 00:10:31;;;;;;;19.15;12.40;;;8.80;99.90;;;;;;5012611;28;20037;-51
2021/12/14 00:13:08;;;;;;;19.42;11.68;;;8.80;99.90;;;;;;4993474;28;20069;-51
2021/12/14 00:15:33;;;;;;;18.25;11.50;;;8.70;99.90;;;;;;4993409;28;20034;-50
2021/12/14 00:18:04;;;;;;;18.58;12.60;;;8.80;99.90;;;;;;4993207;28;20049;-50
2021/12/14 00:20:38;;;;;;;18.80;12.38;;;8.80;99.90;;;;;;5010641;28;20045;-50
2021/12/14 00:25:41;;;;;;;18.40;12.25;;;8.80;99.90;;;;;;5010327;28;20418;-51
2021/12/14 00:28:15;;;;;;;21.52;13.40;;;8.80;99.90;;;;;;4994063;28;20041;-53
2021/12/14 00:30:42;;;;;;;21.30;13.65;;;8.70;99.90;;;;;;5004459;28;20641;-53
2021/12/14 00:33:12;;;;;;;20.13;13.20;;;8.70;99.90;;;;;;5004390;28;20030;-51
2021/12/14 00:35:38;;;;;;;19.90;13.68;;;8.70;99.90;;;;;;4996950;28;20106;-50
2021/12/14 00:38:04;;;;;;;20.02;13.30;;;8.70;99.90;;;;;;5012838;28;20069;-50
2021/12/14 00:40:37;;;;;;;18.48;13.45;;;8.70;99.90;;;;;;5012747;28;20052;-53
2021/12/14 00:43:03;;;;;;;20.13;13.70;;;8.80;99.90;;;;;;5012445;28;20099;-50
2021/12/14 00:45:33;;;;;;;19.67;13.75;;;8.80;99.90;;;;;;5012663;28;20049;-52
2021/12/14 00:48:00;;;;;;;21.95;14.20;;;8.70;99.90;;;;;;5012624;28;20379;-53
2021/12/14 00:50:28;;;;;;;23.48;13.43;;;8.70;99.90;;;;;;5012282;28;20049;-50
2021/12/14 00:52:54;;;;;;;18.98;13.90;;;8.70;99.90;;;;;;5012134;28;20498;-50
2021/12/14 00:55:32;;;;;;;18.83;14.20;;;8.70;99.90;;;;;;5012332;28;20040;-54
2021/12/14 00:57:58;;;;;;;24.02;14.80;;;8.80;99.90;;;;;;5012499;28;20046;-54
2021/12/14 01:00:29;;;;;;;20.02;13.98;;;8.80;99.90;;;;;;5012242;28;20042;-51
2021/12/14 01:02:55;;;;;;;18.63;13.45;;;8.70;99.90;;;;;;5012083;28;20461;-51
2021/12/14 01:05:31;;;;;;;23.50;14.05;;;8.70;99.90;;;;;;4994647;28;20112;-50
2021/12/14 01:07:58;;;;;;;23.10;13.90;;;8.70;99.90;;;;;;5012142;28;20538;-50
2021/12/14 01:10:40;;;;;;;20.83;14.05;;;8.70;99.90;;;;;;5012374;28;20397;-54
2021/12/14 01:13:09;;;;;;;19.85;14.45;;;8.70;99.90;;;;;;5011982;28;20497;-51
2021/12/14 01:15:52;;;;;;;23.17;14.38;;;8.70;99.90;;;;;;5011947;28;20042;-51
2021/12/14 01:21:24;;;;;;;21.40;14.30;;;8.70;99.90;;;;;;5011443;28;20080;-51
2021/12/14 01:24:00;;;;;;;22.55;14.45;;;8.70;99.90;;;;;;4987424;28;20096;-53
2021/12/14 01:26:29;;;;;;;20.13;13.82;;;8.70;99.90;;;;;;5003415;28;20046;-52
2021/12/14 01:28:55;;;;;;;19.95;13.82;;;8.70;99.90;;;;;;5011523;28;20049;-51
2021/12/14 01:31:28;;;;;;;20.52;13.63;;;8.70;99.90;;;;;;5010931;28;20033;-51
2021/12/14 01:33:59;;;;;;;21.02;14.05;;;8.70;99.90;;;;;;5011925;28;20052;-52
2021/12/14 01:36:50;;;;;;;20.38;13.65;;;8.70;99.90;;;;;;4994210;28;20052;-51
2021/12/14 01:42:10;;;;;;;21.90;15.25;;;8.70;99.90;;;;;;5011767;28;20050;-51
2021/12/14 01:44:59;;;;;;;22.65;15.00;;;8.70;99.90;;;;;;4992083;28;20089;-50
2021/12/14 01:47:42;;;;;;;22.75;14.57;;;8.70;99.90;;;;;;5001857;28;20061;-50
2021/12/14 01:50:20;;;;;;;20.23;14.27;;;8.70;99.90;;;;;;5011903;28;20490;-51
2021/12/14 01:52:46;;;;;;;21.35;14.95;;;8.60;99.90;;;;;;5011305;28;20109;-50
2021/12/14 01:55:13;;;;;;;22.98;15.43;;;8.60;99.90;;;;;;5011581;28;20129;-50
2021/12/14 01:57:40;;;;;;;22.65;14.95;;;8.70;99.90;;;;;;5011712;28;20038;-51
2021/12/14 02:00:12;;;;;;;26.17;16.27;;;8.70;99.90;;;;;;5011375;28;20128;-50
2021/12/14 02:02:44;;;;;;;25.67;15.80;;;8.70;99.90;;;;;;5011389;28;20114;-50
2021/12/14 02:05:21;;;;;;;25.08;15.68;;;8.70;99.90;;;;;;5011674;28;20044;-50
2021/12/14 02:07:47;;;;;;;27.70;15.63;;;8.70;99.90;;;;;;5011670;28;20108;-50
2021/12/14 02:10:27;;;;;;;24.77;16.27;;;8.60;99.90;;;;;;5011175;28;20145;-53
2021/12/14 02:12:53;;;;;;;29.30;16.63;;;8.70;99.90;;;;;;5010818;28;20088;-50
2021/12/14 02:15:27;;;;;;;24.67;16.13;;;8.70;99.90;;;;;;5011705;28;20454;-50
2021/12/14 02:17:55;;;;;;;25.52;16.40;;;8.70;99.90;;;;;;5011019;28;20544;-50
2021/12/14 02:20:28;;;;;;;26.63;16.88;;;8.60;99.90;;;;;;5002726;28;20034;-50
2021/12/14 02:22:54;;;;;;;26.58;17.30;;;8.60;99.90;;;;;;5008537;28;20056;-50
2021/12/14 02:25:20;;;;;;;29.67;17.48;;;8.60;99.90;;;;;;4993268;28;20048;-53
2021/12/14 02:27:51;;;;;;;30.73;17.15;;;8.60;99.90;;;;;;5011335;28;20038;-52
2021/12/14 02:30:21;;;;;;;25.27;16.67;;;8.60;99.90;;;;;;5011553;28;20125;-53
2021/12/14 02:32:47;;;;;;;29.58;18.98;;;8.60;99.90;;;;;;5003540;28;20541;-50
2021/12/14 02:35:19;;;;;;;30.80;17.50;;;8.30;99.90;;;;;;5011284;28;20410;-51
2021/12/14 02:37:50;;;;;;;28.05;17.55;;;8.60;99.90;;;;;;5011521;28;20042;-50
2021/12/14 02:40:20;;;;;;;26.00;17.02;;;8.60;99.90;;;;;;5011182;28;20033;-53
2021/12/14 02:42:48;;;;;;;28.20;17.95;;;8.60;99.90;;;;;;5013488;28;20050;-50
2021/12/14 02:45:14;;;;;;;27.33;17.67;;;8.50;99.90;;;;;;5014905;28;20045;-50
2021/12/14 02:47:40;;;;;;;31.05;19.25;;;8.60;99.90;;;;;;5014382;28;20490;-50
2021/12/14 02:50:07;;;;;;;30.13;18.23;;;8.60;99.90;;;;;;5014624;28;20042;-50
2021/12/14 02:52:36;;;;;;;27.80;17.92;;;8.60;99.90;;;;;;5014381;28;20061;-51
2021/12/14 02:55:17;;;;;;;29.30;17.02;;;8.60;99.90;;;;;;4996955;28;20038;-50
2021/12/14 02:57:46;;;;;;;32.50;19.42;;;8.60;99.90;;;;;;5014742;28;20046;-51
2021/12/14 03:00:24;;;;;;;28.30;17.98;;;8.60;99.90;;;;;;5014436;28;20417;-50
2021/12/14 03:02:51;;;;;;;27.85;17.80;;;8.60;99.90;;;;;;5014570;28;20137;-50
2021/12/14 03:05:27;;;;;;;30.45;19.10;;;8.60;99.90;;;;;;5014711;28;20552;-50
2021/12/14 03:08:21;;;;;;;27.75;18.75;;;8.60;99.90;;;;;;5014442;28;20052;-52
2021/12/14 03:11:00;;;;;;;31.77;18.70;;;8.60;99.90;;;;;;4998560;28;20560;-51
2021/12/14 03:13:33;;;;;;;28.90;18.08;;;8.60;99.90;;;;;;4996697;28;20065;-50
2021/12/14 03:16:04;;;;;;;30.60;19.65;;;8.60;99.90;;;;;;5014328;28;20042;-50
2021/12/14 03:18:33;;;;;;;29.83;18.58;;;8.60;99.90;;;;;;4996701;28;20490;-50
2021/12/14 03:21:09;;;;;;;28.63;19.38;;;8.60;99.90;;;;;;5014168;28;20053;-53
2021/12/14 03:23:54;;;;;;;32.53;19.52;;;8.60;99.90;;;;;;5013911;28;20045;-50
2021/12/14 03:26:25;;;;;;;26.75;17.98;;;8.70;99.90;;;;;;5065941;22;20417;-53
2021/12/14 03:28:57;;;;;;;33.38;20.65;;;8.70;99.90;;;;;;5012250;28;20038;-50
2021/12/14 03:31:32;;;;;;;33.30;19.30;;;8.70;99.90;;;;;;5012431;28;20034;-53
2021/12/14 03:34:10;;;;;;;30.52;19.33;;;8.70;99.90;;;;;;5012639;28;20042;-53
2021/12/14 03:36:58;;;;;;;33.97;19.92;;;8.70;99.90;;;;;;5012924;28;20073;-50
2021/12/14 03:39:34;;;;;;;33.00;20.67;;;8.70;99.90;;;;;;5012216;28;20069;-53
2021/12/14 03:42:37;;;;;;;32.97;20.35;;;8.70;99.90;;;;;;5012246;28;20049;-52
2021/12/14 03:45:09;;;;;;;31.90;20.70;;;8.70;99.90;;;;;;4983281;28;20061;-52
2021/12/14 03:47:43;;;;;;;32.50;20.92;;;8.70;99.90;;;;;;5012554;28;20042;-51
2021/12/14 03:50:21;;;;;;;31.63;21.10;;;8.70;99.90;;;;;;4999624;28;20033;-53
2021/12/14 03:52:48;;;;;;;33.15;20.80;;;8.70;99.90;;;;;;5004492;28;20496;-53
2021/12/14 03:55:17;;;;;;;34.60;21.58;;;8.70;99.90;;;;;;5011937;28;20053;-52
2021/12/14 03:57:43;;;;;;;32.67;21.77;;;8.70;99.90;;;;;;5012416;28;20034;-49
2021/12/14 04:00:14;;;;;;;35.30;21.10;;;8.70;99.90;;;;;;5012568;28;20057;-53
2021/12/14 04:02:40;;;;;;;34.58;21.90;;;8.70;99.90;;;;;;5012164;28;20056;-52
2021/12/14 04:05:11;;;;;;;35.28;22.33;;;8.70;99.90;;;;;;5011762;28;20033;-53
2021/12/14 04:07:41;;;;;;;36.03;22.30;;;8.70;99.90;;;;;;4978785;28;20498;-52
2021/12/14 04:11:18;;;;;;;37.50;23.08;;;8.70;99.90;;;;;;5026219;28;20073;-53
2021/12/14 04:14:20;;;;;;;39.47;21.92;;;8.70;99.90;;;;;;4910431;29;20098;-54
2021/12/14 04:16:49;;;;;;;36.75;23.00;;;8.70;99.90;;;;;;4942114;28;20050;-55
2021/12/14 04:19:23;;;;;;;37.00;22.48;;;8.60;99.90;;;;;;4992296;28;20042;-55
2021/12/14 04:21:51;;;;;;;34.95;22.92;;;8.70;99.90;;;;;;4975099;28;20409;-55
2021/12/14 04:24:26;;;;;;;32.15;21.80;;;8.70;99.90;;;;;;4992628;28;20073;-55
2021/12/14 04:26:55;;;;;;;35.97;23.45;;;8.60;99.90;;;;;;4956689;28;1007203;-55
2021/12/14 04:29:21;;;;;;;39.90;24.35;;;8.60;99.90;;;;;;5013114;28;20037;-55
2021/12/14 04:31:48;;;;;;;35.92;23.08;;;8.70;99.90;;;;;;5012570;28;20064;-54
2021/12/14 04:34:17;;;;;;;38.10;24.17;;;8.60;99.90;;;;;;5012533;28;20401;-54
2021/12/14 04:36:46;;;;;;;34.00;22.85;;;8.60;99.90;;;;;;5013102;28;20565;-55
2021/12/14 04:53:22;;;;;;;36.05;23.55;;;8.50;99.90;;;;;;5012164;28;20320;-55
2021/12/14 04:55:50;;;;;;;39.78;24.55;;;8.40;99.90;;;;;;5003485;28;20580;-52
2021/12/14 04:58:30;;;;;;;35.95;23.65;;;8.50;99.90;;;;;;4994259;28;20041;-55
2021/12/14 05:00:57;;;;;;;36.10;23.73;;;8.40;99.90;;;;;;5012691;28;20129;-54
2021/12/14 05:03:27;;;;;;;35.03;23.92;;;8.50;99.90;;;;;;5012025;28;20033;-54
2021/12/14 05:06:09;;;;;;;38.47;24.13;;;8.50;99.90;;;;;;4994467;28;20048;-55
2021/12/14 05:11:06;;;;;;;37.50;23.42;;;8.50;99.90;;;;;;5011713;28;20125;-54
2021/12/14 05:13:35;;;;;;;37.05;24.13;;;8.50;99.90;;;;;;5012189;28;20069;-54
2021/12/14 05:16:03;;;;;;;39.30;24.90;;;8.50;99.90;;;;;;5011802;28;20045;-56
2021/12/14 05:18:29;;;;;;;39.85;26.02;;;8.40;99.90;;;;;;5012225;28;20050;-54
2021/12/14 05:20:54;;;;;;;35.75;24.55;;;8.50;99.90;;;;;;5012125;28;20088;-54
2021/12/14 05:23:27;;;;;;;38.60;25.73;;;8.50;99.90;;;;;;5011936;28;20038;-56
2021/12/14 05:25:55;;;;;;;39.53;24.88;;;8.60;99.90;;;;;;5026570;22;20057;-84
2021/12/14 05:28:22;;;;;;;38.75;24.75;;;8.60;99.90;;;;;;4988621;28;20112;-85
2021/12/14 05:30:52;;;;;;;40.95;26.13;;;8.60;99.90;;;;;;4969289;28;20085;-86
2021/12/14 05:33:22;;;;;;;43.08;25.25;;;8.60;99.90;;;;;;4953161;28;20070;-85
2021/12/14 05:35:50;;;;;;;40.90;25.95;;;8.60;99.90;;;;;;4970754;28;20031;-86
2021/12/14 05:38:22;;;;;;;41.60;26.73;;;8.50;99.90;;;;;;4971031;28;20038;-86
2021/12/14 05:43:20;;;;;;;42.45;26.80;;;8.60;99.90;;;;;;4970424;28;20145;-86
2021/12/14 05:45:50;;;;;;;41.03;25.65;;;8.60;99.90;;;;;;4969795;28;20129;-85
2021/12/14 05:48:19;;;;;;;41.70;26.17;;;8.60;99.90;;;;;;4954173;28;20467;-85
2021/12/14 05:50:50;;;;;;;41.83;27.13;;;8.60;99.90;;;;;;4952228;28;20126;-84
2021/12/14 05:53:31;;;;;;;44.42;27.60;;;8.50;99.90;;;;;;4952120;28;20095;-83
2021/12/14 05:56:01;;;;;;;44.13;28.38;;;8.50;99.90;;;;;;4967564;28;20094;-83
2021/12/14 05:58:28;;;;;;;45.20;28.27;;;8.50;99.90;;;;;;4973194;28;20394;-82
2021/12/14 06:01:00;;;;;;;43.03;27.80;;;8.50;99.90;;;;;;4973565;28;20057;-83
2021/12/14 06:03:32;;;;;;;43.55;27.77;;;8.50;99.90;;;;;;4974543;28;21438;-83
2021/12/14 06:06:00;;;;;;;45.25;28.05;;;8.50;99.90;;;;;;4952853;29;20051;-83
2021/12/14 06:08:35;;;;;;;48.70;30.02;;;8.50;99.90;;;;;;4967174;28;20054;-82
2021/12/14 06:11:01;;;;;;;48.97;31.35;;;8.50;99.90;;;;;;4969998;28;20382;-82
2021/12/14 06:13:40;;;;;;;48.42;29.63;;;8.50;99.90;;;;;;4966258;28;20050;-86
2021/12/14 06:16:08;;;;;;;47.08;30.13;;;8.50;99.90;;;;;;4954984;28;20046;-87
2021/12/14 06:18:34;;;;;;;53.50;30.92;;;8.50;99.90;;;;;;4956077;28;20552;-85
2021/12/14 06:20:59;;;;;;;47.75;31.02;;;8.50;99.90;;;;;;4955408;28;20046;-85
2021/12/14 06:23:28;;;;;;;53.03;31.48;;;8.50;99.90;;;;;;4972169;28;20405;-85
2021/12/14 06:25:54;;;;;;;52.78;32.53;;;8.50;99.90;;;;;;4959689;28;20041;-85
2021/12/14 06:28:28;;;;;;;51.35;31.63;;;8.50;99.90;;;;;;4973770;28;20038;-86
2021/12/14 06:30:56;;;;;;;48.42;30.77;;;8.50;99.90;;;;;;4956393;28;20117;-85
2021/12/14 06:33:26;;;;;;;51.85;30.98;;;8.50;99.90;;;;;;4962236;28;20204;-85
2021/12/14 06:35:54;;;;;;;53.97;33.13;;;8.50;99.90;;;;;;4968658;28;20043;-85
2021/12/14 06:38:34;;;;;;;54.67;32.75;;;8.50;99.90;;;;;;4956861;28;20038;-85
2021/12/14 06:41:23;;;;;;;52.28;32.95;;;8.50;99.90;;;;;;4970101;28;20097;-85
2021/12/14 06:43:52;;;;;;;53.03;31.85;;;8.50;99.90;;;;;;4948212;28;20050;-85
2021/12/14 06:46:31;;;;;;;50.63;32.90;;;8.50;99.90;;;;;;4974082;28;20055;-85
2021/12/14 06:49:05;;;;;;;53.58;33.10;;;8.50;99.90;;;;;;4972128;28;20046;-85
2021/12/14 06:51:53;;;;;;;53.03;32.50;;;8.50;99.90;;;;;;4972384;28;20034;-85
2021/12/14 06:54:26;;;;;;;53.55;34.38;;;8.50;99.90;;;;;;4973812;28;20051;-85
2021/12/14 06:57:01;;;;;;;53.63;32.72;;;8.50;99.90;;;;;;4961794;28;20049;-85
2021/12/14 06:59:27;;;;;;;55.08;33.28;;;8.50;99.90;;;;;;4972076;28;20085;-85
2021/12/14 07:02:00;;;;;;;53.42;32.67;;;8.50;99.90;;;;;;4958984;28;20042;-85
2021/12/14 07:04:29;;;;;;;55.05;33.35;;;8.50;99.90;;;;;;4968573;28;20161;-84
2021/12/14 07:07:03;;;;;;;54.67;32.53;;;8.50;99.90;;;;;;4956431;28;20035;-84
2021/12/14 07:09:33;;;;;;;53.75;33.40;;;8.50;99.90;;;;;;4970619;28;20504;-85
2021/12/14 07:12:10;;;;;;;56.13;33.22;;;8.50;99.90;;;;;;4978583;28;20251;-83
2021/12/14 07:15:10;;;;;;;52.72;32.88;;;8.50;99.90;;;;;;4974894;28;20093;-85
2021/12/14 07:17:43;;;;;;;63.08;33.83;;;8.50;99.90;;;;;;4972968;28;20043;-87
2021/12/14 07:20:46;;;;;;;52.20;32.53;;;8.50;99.90;;;;;;4972587;28;20051;-86
2021/12/14 07:23:34;;;;;;;56.08;34.38;;;8.50;99.90;;;;;;4931951;29;20052;-87
2021/12/14 07:26:03;;;;;;;58.72;34.20;;;8.50;99.90;;;;;;4988154;28;20055;-87
2021/12/14 07:28:41;;;;;;;56.20;34.45;;;8.50;99.90;;;;;;4980970;28;20051;-87
2021/12/14 07:31:18;;;;;;;57.80;34.00;;;8.50;99.90;;;;;;4981366;28;20039;-87
2021/12/14 07:33:47;;;;;;;65.32;34.60;;;8.50;99.90;;;;;;4980173;28;20047;-86
2021/12/14 07:36:27;;;;;;;61.83;36.53;;;8.50;99.90;;;;;;4985670;28;20559;-86
2021/12/14 07:38:56;;;;;;;59.80;35.40;;;8.50;99.90;;;;;;4962952;28;20035;-86
2021/12/14 07:41:35;;;;;;;59.72;36.17;;;8.40;99.90;;;;;;4980203;28;20039;-86
2021/12/14 07:44:04;;;;;;;57.13;34.38;;;8.40;99.90;;;;;;4981827;28;20039;-87
2021/12/14 07:46:41;;;;;;;57.95;33.67;;;8.40;99.90;;;;;;4983124;28;20092;-87
2021/12/14 07:49:27;;;;;;;59.70;34.30;;;8.40;99.90;;;;;;4970616;28;20130;-87
2021/12/14 07:52:10;;;;;;;60.05;35.85;;;8.40;99.90;;;;;;4953117;28;20047;-86
2021/12/14 07:54:38;;;;;;;;;;;8.40;99.90;;;;;;4960251;28;20047;-88
2021/12/14 07:57:29;;;;;;;56.33;34.33;;;8.40;99.90;;;;;;4944584;28;20288;-84
2021/12/14 08:00:05;;;;;;;54.78;33.17;;;8.40;99.90;;;;;;4954711;28;20477;-86
2021/12/14 08:02:35;;;;;;;55.00;33.08;;;8.50;99.90;;;;;;4977989;28;20047;-86
2021/12/14 08:05:22;;;;;;;55.38;33.15;;;8.40;99.90;;;;;;4952674;28;20170;-86
2021/12/14 08:08:20;;;;;;;56.25;33.45;;;8.50;99.90;;;;;;4958100;28;20042;-87
2021/12/14 08:11:08;;;;;;;53.75;32.55;;;8.50;99.90;;;;;;4952151;28;20055;-85
2021/12/14 08:13:44;;;;;;;55.10;33.45;;;8.50;99.90;;;;;;4958137;28;20433;-88
2021/12/14 08:16:10;;;;;;;54.08;32.00;;;8.50;99.90;;;;;;4958419;28;20043;-87
2021/12/14 08:18:38;;;;;;;55.33;33.67;;;8.60;99.90;;;;;;4954984;28;20032;-88
2021/12/14 08:21:08;;;;;;;53.72;32.95;;;8.60;99.90;;;;;;4949257;28;20039;-88
2021/12/14 08:23:49;;;;;;;54.85;33.00;;;8.60;99.90;;;;;;4960220;28;20094;-87
2021/12/14 08:26:36;;;;;;;52.70;32.97;;;8.60;99.90;;;;;;4957480;28;20042;-88
2021/12/14 08:29:12;;;;;;;50.72;32.97;;;8.60;99.90;;;;;;4954152;28;20039;-87
2021/12/14 08:31:42;;;;;;;49.80;31.77;;;8.60;99.90;;;;;;4941594;28;20039;-87
2021/12/14 08:34:11;;;;;;;51.30;33.08;;;8.70;99.90;;;;;;4959245;28;20039;-85
2021/12/14 08:36:44;;;;;;;51.97;32.22;;;8.70;99.90;;;;;;4962148;28;20043;-85
2021/12/14 08:39:27;;;;;;;52.55;31.83;;;8.70;99.90;;;;;;4958572;28;20038;-84
2021/12/14 08:42:03;;;;;;;;;;;8.70;99.90;;;;;;4953983;28;20047;-85
2021/12/14 08:44:37;;;;;;;53.42;32.03;;;8.70;99.90;;;;;;4960798;28;19937;-85
2021/12/14 08:47:08;;;;;;;48.35;31.27;;;8.70;99.90;;;;;;4961749;28;20042;-86
2021/12/14 08:49:34;;;;;;;46.17;30.00;;;8.80;99.90;;;;;;4971441;28;20058;-86
2021/12/14 08:52:01;;;;;;;50.55;30.90;;;8.80;99.90;;;;;;4968607;28;20035;-85
2021/12/14 08:54:30;;;;;;;49.70;30.35;;;8.80;99.90;;;;;;4967382;28;20035;-86
2021/12/14 08:57:13;;;;;;;48.20;30.20;;;8.90;99.90;;;;;;4979778;28;20035;-85
2021/12/14 08:59:40;;;;;;;;;;;8.80;99.90;;;;;;4968727;28;20046;-85
2021/12/14 09:02:12;;;;;;;45.83;28.45;;;8.80;99.90;;;;;;4980151;28;19978;-85
2021/12/14 09:04:46;;;;;;;48.45;29.75;;;8.80;99.90;;;;;;4964692;28;20035;-85
2021/12/14 09:07:17;;;;;;;46.20;29.45;;;8.90;99.90;;;;;;4957494;28;20069;-86
2021/12/14 09:09:43;;;;;;;43.80;28.65;;;8.80;99.90;;;;;;4958242;28;20109;-86
2021/12/14 09:12:17;;;;;;;48.00;30.33;;;8.80;99.90;;;;;;4954648;28;20085;-86
2021/12/14 09:14:46;;;;;;;47.65;29.75;;;8.80;99.90;;;;;;4968212;28;20050;-85
2021/12/14 09:17:14;;;;;;;48.17;29.23;;;8.80;99.90;;;;;;4975380;28;20098;-86
2021/12/14 09:19:44;;;;;;;44.35;28.27;;;8.90;99.90;;;;;;4951131;28;20051;-85
2021/12/14 09:22:25;;;;;;;46.95;28.73;;;8.90;99.90;;;;;;4960265;28;20216;-86
2021/12/14 09:24:53;;;;;;;44.58;28.55;;;8.90;99.90;;;;;;4973149;28;20122;-86
2021/12/14 09:27:25;;;;;;;46.28;27.30;;;8.90;99.90;;;;;;5005046;23;20038;-55
2021/12/14 09:29:52;;;;;;;43.63;27.90;;;8.90;99.90;;;;;;5012839;28;20137;-53
2021/12/14 09:32:23;;;;;;;47.53;29.58;;;8.90;99.90;;;;;;5012121;28;20292;-55
2021/12/14 09:34:50;;;;;;;41.90;28.30;;;8.90;99.90;;;;;;5019741;28;20117;-55
2021/12/14 09:37:16;;;;;;;47.92;28.15;;;8.90;99.90;;;;;;5007374;28;20369;-55
2021/12/14 09:39:46;;;;;;;41.97;27.48;;;8.90;99.90;;;;;;5010118;28;20131;-54
2021/12/14 09:42:16;;;;;;;45.05;27.75;;;8.90;99.90;;;;;;5021779;28;20037;-56
2021/12/14 09:44:43;;;;;;;43.50;28.60;;;8.90;99.90;;;;;;5011500;28;20383;-55
2021/12/14 09:47:16;;;;;;;46.75;29.13;;;8.90;99.90;;;;;;5012890;28;20041;-57
2021/12/14 09:49:44;;;;;;;46.42;28.00;;;8.90;99.90;;;;;;5005247;28;20116;-56
2021/12/14 09:52:15;;;;;;;41.80;26.67;;;8.90;99.90;;;;;;5005502;28;20180;-56
2021/12/14 09:54:41;;;;;;;41.67;26.75;;;9.00;99.90;;;;;;5012839;28;20490;-57
2021/12/14 09:57:15;;;;;;;44.30;27.35;;;8.90;99.90;;;;;;5020707;28;20124;-58
2021/12/14 09:59:41;;;;;;;41.53;27.63;;;9.00;99.90;;;;;;5012999;28;20049;-56
2021/12/14 10:02:27;;;;;;;43.80;27.67;;;8.90;99.90;;;;;;5000462;28;20042;-55
2021/12/14 10:05:11;;;;;;;40.92;27.33;;;9.00;99.90;;;;;;5011553;28;20786;-54
2021/12/14 10:07:37;;;;;;;46.75;27.67;;;9.00;99.90;;;;;;4998556;28;20056;-55
2021/12/14 10:10:07;;;;;;;43.92;26.88;;;9.00;99.90;;;;;;5011870;28;20401;-55
2021/12/14 10:15:08;;;;;;;45.60;27.55;;;9.00;99.90;;;;;;5022374;28;20033;-54
2021/12/14 10:17:34;;;;;;;46.47;26.42;;;9.00;99.90;;;;;;5022912;28;20107;-56
2021/12/14 10:20:00;;;;;;;43.10;27.08;;;9.00;99.90;;;;;;5024947;28;20630;-55
2021/12/14 10:22:30;;;;;;;47.17;27.65;;;9.10;99.90;;;;;;5014063;28;20041;-56
2021/12/14 10:25:01;;;;;;;46.80;27.17;;;9.00;99.90;;;;;;5021611;28;20037;-56
2021/12/14 10:27:32;;;;;;;45.10;27.65;;;9.10;99.90;;;;;;5022452;28;20568;-57
2021/12/14 10:29:59;;;;;;;49.83;28.75;;;9.10;99.90;;;;;;5005031;28;20046;-53
2021/12/14 10:32:30;;;;;;;54.22;30.48;;;9.00;99.90;;;;;;5015603;28;20563;-56
2021/12/14 10:35:01;;;;;;;53.53;30.00;;;9.00;99.90;;;;;;5020266;28;20500;-56
2021/12/14 10:37:51;;;;;;;55.13;30.33;;;9.00;99.90;;;;;;5012754;28;20620;-56
2021/12/14 10:43:15;;;;;;;51.83;28.85;;;9.00;99.90;;;;;;5015682;28;20056;-55
2021/12/14 10:45:54;;;;;;;53.10;30.08;;;9.00;99.90;;;;;;4997487;28;20073;-54
2021/12/14 10:48:24;;;;;;;51.72;29.25;;;9.00;99.90;;;;;;5006181;28;20560;-53
2021/12/14 10:50:53;;;;;;;50.72;28.67;;;9.00;99.90;;;;;;5012521;28;20548;-55
2021/12/14 10:53:20;;;;;;;58.05;30.15;;;8.90;99.90;;;;;;5013377;28;20061;-55
2021/12/14 10:55:54;;;;;;;57.08;30.17;;;8.90;99.90;;;;;;5015327;28;20034;-54
2021/12/14 10:58:23;;;;;;;52.78;30.25;;;9.00;99.90;;;;;;5031874;28;20044;-54
2021/12/14 11:01:14;;;;;;;50.80;29.70;;;8.90;99.90;;;;;;5019182;28;20048;-56
2021/12/14 11:03:46;;;;;;;59.65;29.83;;;8.90;99.90;;;;;;5012370;28;20061;-56
2021/12/14 11:06:20;;;;;;;64.20;31.23;;;8.90;99.90;;;;;;4993728;28;20045;-53
2021/12/14 11:11:42;;;;;;;53.92;29.30;;;8.90;99.90;;;;;;5013006;28;20056;-55
2021/12/14 11:14:11;;;;;;;60.55;30.42;;;9.00;99.90;;;;;;5009840;28;20041;-56
2021/12/14 11:19:53;;;;;;;56.50;29.92;;;8.90;99.90;;;;;;5026173;28;20076;-56
2021/12/14 11:22:23;;;;;;;58.45;29.77;;;9.00;99.90;;;;;;4996188;28;20484;-55
2021/12/14 11:24:57;;;;;;;57.50;28.48;;;8.90;99.90;;;;;;5021180;28;20041;-53
2021/12/14 11:27:27;;;;;;;66.63;30.83;;;9.00;99.90;;;;;;5010900;28;20113;-54
2021/12/14 11:30:19;;;;;;;52.92;28.67;;;9.00;99.90;;;;;;5001907;28;20486;-55
2021/12/14 11:33:03;;;;;;;52.87;28.40;;;9.00;99.90;;;;;;5006788;28;20038;-55
2021/12/14 11:35:30;;;;;;;47.10;26.98;;;9.00;99.90;;;;;;5004672;28;20033;-55
2021/12/14 11:37:58;;;;;;;50.35;27.92;;;9.00;99.90;;;;;;5002138;28;20038;-56
2021/12/14 11:40:26;;;;;;;47.75;25.70;;;9.00;99.90;;;;;;5003849;28;20030;-54
2021/12/14 11:42:52;;;;;;;42.40;25.20;;;9.00;99.90;;;;;;5013204;28;20048;-53
2021/12/14 11:45:21;;;;;;;47.00;26.15;;;9.00;99.90;;;;;;5013163;28;20041;-54
2021/12/14 11:47:54;;;;;;;52.05;27.98;;;9.00;99.90;;;;;;5015299;28;20041;-55
2021/12/14 11:50:45;;;;;;;49.03;26.20;;;9.00;99.90;;;;;;5020481;28;20037;-53
2021/12/14 11:53:17;;;;;;;46.90;25.67;;;9.00;99.90;;;;;;5013821;28;20116;-53
2021/12/14 11:56:06;;;;;;;43.10;24.42;;;9.10;99.90;;;;;;5007567;28;20394;-55
2021/12/14 11:59:05;;;;;;;41.75;24.70;;;9.10;99.90;;;;;;4998281;28;20113;-55
2021/12/14 12:01:53;;;;;;;46.05;25.23;;;9.10;99.90;;;;;;4976626;28;20054;-55
2021/12/14 12:04:23;;;;;;;48.45;25.67;;;9.10;99.90;;;;;;5015780;28;20053;-56
2021/12/14 12:09:37;;;;;;;44.60;24.42;;;9.10;99.90;;;;;;5009596;28;20042;-56
2021/12/14 12:12:02;;;;;;;43.85;24.45;;;9.10;99.90;;;;;;5013215;28;20053;-53
2021/12/14 12:14:34;;;;;;;43.30;24.10;;;9.10;99.90;;;;;;5011697;28;20038;-53
2021/12/14 12:17:27;;;;;;;41.10;23.48;;;9.10;99.90;;;;;;5020099;28;20048;-54
2021/12/14 12:20:11;;;;;;;41.22;23.27;;;9.10;99.90;;;;;;5010166;28;20251;-53
2021/12/14 12:22:39;;;;;;;38.20;21.98;;;9.20;99.90;;;;;;5008392;28;20437;-53
2021/12/14 12:25:30;;;;;;;38.95;23.85;;;9.20;99.90;;;;;;5004111;28;20046;-52
2021/12/14 12:27:58;;;;;;;39.15;22.10;;;9.20;99.90;;;;;;5007437;28;20042;-52
2021/12/14 12:30:39;;;;;;;36.00;22.10;;;9.20;99.90;;;;;;5003062;28;20529;-52
2021/12/14 12:33:14;;;;;;;39.27;22.80;;;9.20;99.90;;;;;;5012802;28;20053;-52
2021/12/14 12:35:57;;;;;;;42.70;23.25;;;9.20;99.90;;;;;;5016677;28;20125;-52
2021/12/14 12:38:56;;;;;;;36.30;21.75;;;9.20;99.90;;;;;;4993532;28;20045;-52
2021/12/14 12:41:44;;;;;;;40.90;22.98;;;9.20;99.90;;;;;;4988341;28;20056;-52
2021/12/14 12:44:23;;;;;;;41.70;23.90;;;9.20;99.90;;;;;;5006609;28;20049;-52
2021/12/14 12:46:56;;;;;;;43.25;24.02;;;9.20;99.90;;;;;;5011604;28;20037;-54
2021/12/14 12:49:40;;;;;;;40.42;24.05;;;9.20;99.90;;;;;;5008118;28;20050;-55
2021/12/14 12:52:10;;;;;;;38.60;23.17;;;9.20;99.90;;;;;;5008339;28;21805;-55
2021/12/14 12:54:44;;;;;;;44.47;24.67;;;9.20;99.90;;;;;;5008441;28;20060;-55
2021/12/14 12:57:32;;;;;;;48.22;26.58;;;9.20;99.90;;;;;;5009987;28;20034;-54
2021/12/14 13:00:27;;;;;;;48.75;26.58;;;9.20;99.90;;;;;;5009416;28;20117;-52
2021/12/14 13:03:14;;;;;;;47.50;25.38;;;9.20;99.90;;;;;;5005483;28;20045;-55
2021/12/14 13:06:05;;;;;;;51.58;27.45;;;9.20;99.90;;;;;;5007836;28;20037;-55
2021/12/14 13:08:41;;;;;;;53.72;27.80;;;9.20;99.90;;;;;;5008477;28;20121;-55
2021/12/14 13:11:10;;;;;;;49.95;27.73;;;9.30;99.90;;;;;;5007853;28;20045;-56
2021/12/14 13:13:42;;;;;;;53.22;27.85;;;9.20;99.90;;;;;;5010817;28;20037;-55
2021/12/14 13:16:24;;;;;;;52.55;28.23;;;9.30;99.90;;;;;;5005389;28;20033;-55
2021/12/14 13:18:55;;;;;;;54.55;28.15;;;9.30;99.90;;;;;;5009130;28;20048;-56
2021/12/14 13:21:36;;;;;;;56.65;29.33;;;9.30;99.90;;;;;;5010077;28;20042;-56
2021/12/14 13:24:12;;;;;;;53.88;28.77;;;9.30;99.90;;;;;;5002989;28;20033;-55
2021/12/14 13:26:47;;;;;;;52.97;28.50;;;9.30;99.90;;;;;;5006778;28;20041;-56
2021/12/14 13:29:12;;;;;;;51.65;27.23;;;9.30;99.90;;;;;;4988839;28;20054;-56
2021/12/14 13:32:00;;;;;;;57.17;28.55;;;9.30;99.90;;;;;;5005042;28;20042;-54
2021/12/14 13:34:31;;;;;;;49.47;27.77;;;9.30;99.90;;;;;;5005959;28;20130;-55
2021/12/14 13:36:58;;;;;;;50.72;27.50;;;9.30;99.90;;;;;;5006155;28;20386;-54
2021/12/14 13:39:25;;;;;;;58.08;28.35;;;9.30;99.90;;;;;;5009182;28;20037;-56
2021/12/14 13:42:16;;;;;;;50.83;27.08;;;9.30;99.90;;;;;;5006993;28;20037;-54
2021/12/14 13:44:50;;;;;;;51.03;27.48;;;9.30;99.90;;;;;;5006338;28;20081;-53
2021/12/14 13:47:16;;;;;;;51.28;27.10;;;9.30;99.90;;;;;;5005948;28;20050;-52
2021/12/14 13:49:43;;;;;;;51.30;26.45;;;9.20;99.90;;;;;;4992185;28;20054;-52
2021/12/14 13:52:12;;;;;;;47.08;26.33;;;9.30;99.90;;;;;;5009557;28;20505;-55